Time;durP1;ratioP1;P1;durP2;ratioP2;P2;SDS_P1;SDS_P2;PMS_P1;PMS_P2;Temp;Humidity;BMP_temperature;BMP_pressure;BME280_temperature;BME280_humidity;BME280_pressure;Samples;Min_cycle;Max_cycle;Signal;HPM_P1;HPM_P2
2023/10/02 00:12:58;;;;;;;11.17;5.03;;;;;;;;;;6247008;22;20763;-92
2023/10/02 00:15:42;;;;;;;6.57;4.67;;;;;;;;;;6244239;22;20369;-92
2023/10/02 00:18:08;;;;;;;11.20;4.17;;;;;;;;;;6180435;22;20527;-92
2023/10/02 00:20:34;;;;;;;6.03;3.83;;;;;;;;;;6238128;22;20393;-92
2023/10/02 00:23:04;;;;;;;9.50;4.77;;;;;;;;;;6242336;22;20385;-91
2023/10/02 00:25:51;;;;;;;10.50;5.77;;;;;;;;;;6238542;22;20826;-91
2023/10/02 00:28:30;;;;;;;7.40;4.10;;;;;;;;;;6266949;22;20389;-91
2023/10/02 00:30:56;;;;;;;5.53;3.90;;;;;;;;;;6241971;22;20365;-91
2023/10/02 00:33:27;;;;;;;8.10;4.80;;;;;;;;;;6241355;22;20385;-92
2023/10/02 00:35:56;;;;;;;9.17;5.33;;;;;;;;;;6238840;22;20399;-91
2023/10/02 00:38:23;;;;;;;11.87;5.30;;;;;;;;;;6202096;23;20665;-92
2023/10/02 00:40:49;;;;;;;8.53;4.53;;;;;;;;;;6177486;23;20375;-92
2023/10/02 00:43:34;;;;;;;8.00;4.93;;;;;;;;;;6177628;23;20383;-92
2023/10/02 00:46:23;;;;;;;8.80;4.70;;;;;;;;;;6180883;23;20379;-92
2023/10/02 00:48:54;;;;;;;9.40;4.60;;;;;;;;;;6226746;23;20937;-92
2023/10/02 00:51:22;;;;;;;8.10;4.30;;;;;;;;;;6178191;23;20371;-92
2023/10/02 00:53:53;;;;;;;6.60;3.90;;;;;;;;;;6177596;23;20371;-91
2023/10/02 00:56:19;;;;;;;9.03;5.20;;;;;;;;;;6178902;23;20375;-92
2023/10/02 00:58:55;;;;;;;13.90;4.80;;;;;;;;;;6178919;23;20347;-92
2023/10/02 01:01:24;;;;;;;8.90;4.90;;;;;;;;;;6144430;23;20361;-92
2023/10/02 01:07:04;;;;;;;9.10;4.80;;;;;;;;;;6139944;23;20397;-92
2023/10/02 01:09:33;;;;;;;12.70;5.30;;;;;;;;;;6161132;23;20382;-93
2023/10/02 01:19:53;;;;;;;11.67;5.93;;;;;;;;;;6263229;22;20428;-92
2023/10/02 01:22:29;;;;;;;8.67;5.20;;;;;;;;;;6210906;23;20803;-92
2023/10/02 01:25:06;;;;;;;9.93;5.50;;;;;;;;;;6210594;23;20417;-92
2023/10/02 01:27:40;;;;;;;11.40;4.20;;;;;;;;;;6209486;23;20384;-93
2023/10/02 01:30:18;;;;;;;10.13;5.27;;;;;;;;;;6208278;23;20357;-92
2023/10/02 01:35:37;;;;;;;7.73;4.90;;;;;;;;;;6261649;23;20442;-92
2023/10/02 01:38:06;;;;;;;14.27;5.17;;;;;;;;;;6206960;23;20395;-92
2023/10/02 01:40:36;;;;;;;7.87;4.20;;;;;;;;;;6208954;23;20427;-92
2023/10/02 01:43:12;;;;;;;7.90;5.17;;;;;;;;;;6206823;23;20390;-92
2023/10/02 01:45:44;;;;;;;13.30;5.60;;;;;;;;;;6209474;23;20390;-92
2023/10/02 01:48:54;;;;;;;10.03;4.60;;;;;;;;;;6141227;23;20396;-92
2023/10/02 01:51:20;;;;;;;12.27;5.13;;;;;;;;;;6157258;23;20389;-93
2023/10/02 01:53:48;;;;;;;10.17;5.70;;;;;;;;;;6142827;23;20381;-91
2023/10/02 01:56:15;;;;;;;6.30;4.90;;;;;;;;;;6116208;23;20389;-93
2023/10/02 01:58:44;;;;;;;11.03;5.23;;;;;;;;;;6140765;23;20448;-91
2023/10/02 02:01:10;;;;;;;11.87;5.40;;;;;;;;;;6115770;23;20365;-92
2023/10/02 02:03:41;;;;;;;13.60;4.83;;;;;;;;;;6116440;23;20393;-92
2023/10/02 02:06:10;;;;;;;6.70;4.60;;;;;;;;;;6116011;23;20821;-92
2023/10/02 02:08:37;;;;;;;10.13;5.30;;;;;;;;;;6139796;23;20384;-91
2023/10/02 02:11:16;;;;;;;10.53;5.60;;;;;;;;;;6115204;23;20377;-92
2023/10/02 02:13:47;;;;;;;8.83;5.40;;;;;;;;;;6116428;23;20404;-92
2023/10/02 02:16:21;;;;;;;7.10;4.40;;;;;;;;;;6116080;23;20381;-92
2023/10/02 02:19:01;;;;;;;14.83;6.27;;;;;;;;;;6177490;23;20444;-91
2023/10/02 02:21:29;;;;;;;8.93;5.00;;;;;;;;;;6207306;23;20390;-92
2023/10/02 02:24:04;;;;;;;9.63;4.23;;;;;;;;;;6210297;23;20378;-92
2023/10/02 02:26:31;;;;;;;6.47;4.30;;;;;;;;;;6208759;23;20382;-92
2023/10/02 02:28:57;;;;;;;9.47;5.30;;;;;;;;;;6206095;23;20393;-92
2023/10/02 02:31:29;;;;;;;12.33;5.73;;;;;;;;;;6205942;23;20892;-92
2023/10/02 02:34:09;;;;;;;8.30;5.43;;;;;;;;;;6232384;23;20339;-92
2023/10/02 02:36:35;;;;;;;8.00;4.83;;;;;;;;;;6206557;23;20378;-92
2023/10/02 02:39:08;;;;;;;13.57;5.43;;;;;;;;;;6204097;23;20366;-92
2023/10/02 02:41:35;;;;;;;10.27;5.60;;;;;;;;;;6207246;23;20392;-91
2023/10/02 02:44:01;;;;;;;16.13;5.33;;;;;;;;;;6204636;23;20463;-92
2023/10/02 02:46:29;;;;;;;8.27;5.30;;;;;;;;;;6206949;23;20452;-93
2023/10/02 02:48:56;;;;;;;9.50;5.50;;;;;;;;;;6204305;23;20382;-92
2023/10/02 02:51:29;;;;;;;10.37;6.30;;;;;;;;;;6232956;23;20358;-92
2023/10/02 02:53:55;;;;;;;7.97;5.47;;;;;;;;;;6205386;23;20393;-92
2023/10/02 02:56:24;;;;;;;12.13;5.50;;;;;;;;;;6210546;23;20481;-92
2023/10/02 02:58:52;;;;;;;8.00;4.87;;;;;;;;;;6207506;23;20920;-92
2023/10/02 03:01:22;;;;;;;12.57;6.63;;;;;;;;;;6208313;23;20370;-93
2023/10/02 03:04:11;;;;;;;12.80;4.87;;;;;;;;;;6207208;23;20401;-92
2023/10/02 03:06:37;;;;;;;13.50;5.80;;;;;;;;;;6209630;23;20776;-92
2023/10/02 03:09:05;;;;;;;7.67;4.77;;;;;;;;;;6206152;23;20385;-92
2023/10/02 03:11:32;;;;;;;10.53;4.70;;;;;;;;;;6207667;23;20374;-92
2023/10/02 03:14:14;;;;;;;15.50;6.50;;;;;;;;;;6195009;23;20359;-92
2023/10/02 03:16:44;;;;;;;8.67;5.17;;;;;;;;;;6151684;23;20384;-92
2023/10/02 03:19:13;;;;;;;13.07;5.67;;;;;;;;;;6146148;23;20380;-92
2023/10/02 03:21:42;;;;;;;15.63;5.97;;;;;;;;;;6147964;23;20395;-93
2023/10/02 03:24:18;;;;;;;8.73;5.57;;;;;;;;;;6147994;23;20419;-92
2023/10/02 03:27:00;;;;;;;11.37;6.17;;;;;;;;;;6150523;23;20380;-93
2023/10/02 03:29:26;;;;;;;8.93;4.93;;;;;;;;;;6146924;23;20372;-92
2023/10/02 03:31:52;;;;;;;13.33;5.10;;;;;;;;;;6146657;23;20402;-92
2023/10/02 03:34:27;;;;;;;14.70;5.77;;;;;;;;;;6168935;23;20403;-92
2023/10/02 03:36:54;;;;;;;7.53;5.77;;;;;;;;;;6144697;23;20407;-92
2023/10/02 03:42:12;;;;;;;9.23;5.10;;;;;;;;;;6172519;23;20399;-92
2023/10/02 03:44:38;;;;;;;10.27;4.90;;;;;;;;;;6171901;23;20438;-92
2023/10/02 03:47:04;;;;;;;12.83;6.30;;;;;;;;;;6206235;23;20853;-91
2023/10/02 03:49:34;;;;;;;10.23;5.03;;;;;;;;;;6206310;23;20386;-92
2023/10/02 03:52:02;;;;;;;9.37;5.90;;;;;;;;;;6205933;23;20370;-91
2023/10/02 03:54:29;;;;;;;7.03;4.40;;;;;;;;;;6205601;23;20374;-91
2023/10/02 03:56:56;;;;;;;9.47;5.37;;;;;;;;;;6232675;23;20434;-91
2023/10/02 03:59:53;;;;;;;12.80;5.27;;;;;;;;;;6232693;23;20422;-91
2023/10/02 04:02:25;;;;;;;10.67;5.53;;;;;;;;;;6231586;23;20432;-91
2023/10/02 04:04:51;;;;;;;8.47;5.30;;;;;;;;;;6208247;23;20468;-91
2023/10/02 04:07:18;;;;;;;7.30;5.03;;;;;;;;;;6207666;23;20374;-91
2023/10/02 04:09:50;;;;;;;9.07;5.93;;;;;;;;;;6210155;23;20370;-91
2023/10/02 04:12:17;;;;;;;11.07;5.63;;;;;;;;;;6206370;23;20363;-91
2023/10/02 04:14:43;;;;;;;9.07;5.30;;;;;;;;;;6206655;23;20473;-92
2023/10/02 04:19:49;;;;;;;9.30;4.80;;;;;;;;;;6235536;23;20761;-91
2023/10/02 04:22:25;;;;;;;14.27;5.70;;;;;;;;;;6206725;23;20375;-91
2023/10/02 04:24:58;;;;;;;11.33;5.63;;;;;;;;;;6231521;23;20410;-92
2023/10/02 04:27:25;;;;;;;12.17;6.20;;;;;;;;;;6207414;22;20370;-92
2023/10/02 04:30:45;;;;;;;9.10;5.73;;;;;;;;;;6207364;23;20375;-91
2023/10/02 04:32:59;;;;;;;10.33;4.90;;;;;;;;;;6160243;23;20381;-90
2023/10/02 04:35:44;;;;;;;11.63;6.57;;;;;;;;;;6151944;23;20436;-91
2023/10/02 04:38:14;;;;;;;12.97;5.70;;;;;;;;;;6120808;23;20385;-91
2023/10/02 04:40:52;;;;;;;9.80;5.70;;;;;;;;;;6118378;23;20369;-92
2023/10/02 04:43:28;;;;;;;8.87;5.80;;;;;;;;;;6142085;23;20365;-91
2023/10/02 04:46:02;;;;;;;14.00;6.43;;;;;;;;;;6120184;23;20416;-91
2023/10/02 04:48:39;;;;;;;9.33;5.80;;;;;;;;;;6119331;23;20411;-91
2023/10/02 04:51:11;;;;;;;14.00;6.30;;;;;;;;;;6119687;23;20801;-91
2023/10/02 04:53:42;;;;;;;16.10;6.93;;;;;;;;;;6120690;23;20832;-91
2023/10/02 04:58:51;;;;;;;15.83;8.50;;;;;;;;;;6145100;23;20456;-91
2023/10/02 05:01:24;;;;;;;14.30;7.50;;;;;;;;;;6119056;23;20516;-91
2023/10/02 05:03:53;;;;;;;9.83;6.27;;;;;;;;;;6181924;23;20697;-92
2023/10/02 05:06:43;;;;;;;11.13;5.87;;;;;;;;;;6173261;23;20411;-91
2023/10/02 05:12:08;;;;;;;8.70;6.50;;;;;;;;;;6118619;23;20408;-91
2023/10/02 05:14:48;;;;;;;12.70;6.77;;;;;;;;;;6137157;23;20388;-90
2023/10/02 05:17:17;;;;;;;17.83;5.37;;;;;;;;;;6137068;23;20880;-91
2023/10/02 05:20:04;;;;;;;11.70;6.20;;;;;;;;;;6137973;23;20421;-92
2023/10/02 05:22:31;;;;;;;11.50;6.63;;;;;;;;;;6137051;23;20412;-91
2023/10/02 05:25:04;;;;;;;13.57;7.10;;;;;;;;;;6139682;23;20425;-91
2023/10/02 05:27:30;;;;;;;16.13;7.97;;;;;;;;;;6136775;23;20397;-92
2023/10/02 05:30:00;;;;;;;21.53;8.50;;;;;;;;;;6139197;23;20416;-92
2023/10/02 05:32:32;;;;;;;15.60;8.33;;;;;;;;;;6138221;23;20400;-91
2023/10/02 05:35:04;;;;;;;15.70;8.20;;;;;;;;;;6137858;23;20505;-92
2023/10/02 05:37:31;;;;;;;19.03;8.07;;;;;;;;;;6162794;23;20395;-92
2023/10/02 05:43:31;;;;;;;16.93;8.57;;;;;;;;;;6176359;23;20453;-92
2023/10/02 05:48:14;;;;;;;12.83;7.30;;;;;;;;;;6183790;23;20390;-91
2023/10/02 05:50:52;;;;;;;13.50;5.83;;;;;;;;;;6232652;23;20389;-92
2023/10/02 05:53:25;;;;;;;14.73;8.40;;;;;;;;;;6208507;23;20385;-92
2023/10/02 05:56:04;;;;;;;11.53;6.90;;;;;;;;;;6205970;23;20895;-91
2023/10/02 05:58:33;;;;;;;11.90;5.97;;;;;;;;;;6205951;23;20404;-91
2023/10/02 06:01:04;;;;;;;19.50;8.67;;;;;;;;;;6207159;23;20367;-91
2023/10/02 06:03:36;;;;;;;16.53;8.00;;;;;;;;;;6206557;23;20856;-91
2023/10/02 06:06:17;;;;;;;10.10;6.47;;;;;;;;;;6205762;23;20418;-91
2023/10/02 06:08:43;;;;;;;11.73;6.07;;;;;;;;;;6206352;23;20402;-91
2023/10/02 06:11:59;;;;;;;10.23;5.97;;;;;;;;;;6231791;23;20402;-91
2023/10/02 06:14:28;;;;;;;14.33;6.60;;;;;;;;;;6227945;23;20888;-91
2023/10/02 06:19:42;;;;;;;17.80;6.07;;;;;;;;;;6253816;22;20433;-92
2023/10/02 06:22:09;;;;;;;14.37;6.10;;;;;;;;;;6207233;23;20424;-93
2023/10/02 06:24:35;;;;;;;9.87;6.40;;;;;;;;;;6209212;23;20421;-94
2023/10/02 06:27:17;;;;;;;17.27;7.13;;;;;;;;;;6208161;23;20394;-94
2023/10/02 06:29:44;;;;;;;11.67;6.00;;;;;;;;;;6212507;23;20897;-93
2023/10/02 06:32:19;;;;;;;11.43;6.83;;;;;;;;;;6209129;23;20386;-92
2023/10/02 06:34:45;;;;;;;10.17;5.90;;;;;;;;;;6209134;23;20386;-92
2023/10/02 06:37:11;;;;;;;9.80;5.93;;;;;;;;;;6203595;23;20394;-91
2023/10/02 06:40:16;;;;;;;14.13;6.93;;;;;;;;;;6229729;23;20385;-92
2023/10/02 06:42:50;;;;;;;12.50;5.70;;;;;;;;;;6258055;23;20374;-91
2023/10/02 06:45:32;;;;;;;13.07;7.03;;;;;;;;;;6201261;23;20742;-92
2023/10/02 06:48:06;;;;;;;11.27;5.60;;;;;;;;;;6213889;23;20370;-90
2023/10/02 06:50:35;;;;;;;11.70;6.20;;;;;;;;;;6201791;23;20367;-90
2023/10/02 06:53:07;;;;;;;8.23;5.87;;;;;;;;;;6204847;23;20367;-90
2023/10/02 06:55:42;;;;;;;7.80;5.47;;;;;;;;;;6202347;23;20398;-90
2023/10/02 07:01:18;;;;;;;11.40;8.10;;;;;;;;;;6224363;23;20393;-91
2023/10/02 07:03:56;;;;;;;13.23;9.30;;;;;;;;;;6207004;23;20457;-90
2023/10/02 07:06:26;;;;;;;14.93;6.60;;;;;;;;;;6195573;23;20565;-91
2023/10/02 07:09:12;;;;;;;13.27;6.90;;;;;;;;;;6185788;23;20384;-89
2023/10/02 07:12:07;;;;;;;;;;;;;;;;;;;;;
2023/10/02 07:18:11;;;;;;;;;;;;;;;;;;;;;
2023/10/02 07:20:42;;;;;;;11.07;6.17;;;;;;;;;;6201095;23;20822;-91
2023/10/02 07:23:33;;;;;;;15.80;6.87;;;;;;;;;;6196806;23;20476;-91
2023/10/02 07:26:04;;;;;;;11.20;6.50;;;;;;;;;;6201691;23;20442;-91
2023/10/02 07:31:44;;;;;;;19.10;7.60;;;;;;;;;;6202242;23;20541;-92
2023/10/02 07:34:29;;;;;;;11.67;6.67;;;;;;;;;;6195945;23;20391;-91
2023/10/02 07:37:15;;;;;;;10.77;6.10;;;;;;;;;;6198060;23;20376;-92
2023/10/02 07:58:13;;;;;;;15.77;8.00;;;;;;;;;;6257985;22;20429;-90
2023/10/02 08:00:40;;;;;;;15.43;7.27;;;;;;;;;;6205589;23;20381;-90
2023/10/02 08:03:31;;;;;;;15.00;6.40;;;;;;;;;;6206948;23;20389;-91
2023/10/02 08:05:56;;;;;;;12.57;5.80;;;;;;;;;;6232431;23;20434;-90
2023/10/02 08:08:23;;;;;;;14.00;6.90;;;;;;;;;;6207074;23;20845;-92
2023/10/02 08:10:49;;;;;;;11.73;6.33;;;;;;;;;;6207853;23;20394;-91
2023/10/02 08:13:32;;;;;;;9.87;5.70;;;;;;;;;;6209361;23;20370;-91
2023/10/02 08:15:58;;;;;;;19.47;7.50;;;;;;;;;;6238135;22;20389;-92
2023/10/02 08:18:24;;;;;;;15.13;7.53;;;;;;;;;;6169907;23;20372;-92
2023/10/02 08:20:53;;;;;;;14.00;7.30;;;;;;;;;;6166622;23;20381;-90
2023/10/02 08:23:22;;;;;;;14.37;8.13;;;;;;;;;;6173188;23;20420;-92
2023/10/02 08:26:09;;;;;;;13.93;7.00;;;;;;;;;;6165962;23;20904;-92
2023/10/02 08:28:37;;;;;;;24.40;11.50;;;;;;;;;;6167507;23;20456;-92
2023/10/02 08:31:03;;;;;;;59.10;14.67;;;;;;;;;;6166333;23;20423;-93
2023/10/02 08:33:43;;;;;;;25.23;8.37;;;;;;;;;;6164814;23;20372;-94
2023/10/02 08:36:13;;;;;;;18.33;9.00;;;;;;;;;;6163942;23;20368;-93
2023/10/02 08:38:49;;;;;;;27.27;10.20;;;;;;;;;;6162725;23;20395;-93
2023/10/02 08:41:19;;;;;;;13.63;7.30;;;;;;;;;;6163786;23;20399;-93
2023/10/02 08:43:45;;;;;;;10.87;6.40;;;;;;;;;;6170161;23;20389;-92
2023/10/02 08:46:24;;;;;;;12.77;8.00;;;;;;;;;;6166364;23;20440;-92
2023/10/02 08:48:57;;;;;;;17.30;7.70;;;;;;;;;;6187154;23;20385;-92
2023/10/02 08:51:36;;;;;;;13.10;7.07;;;;;;;;;;6207040;23;20712;-92
2023/10/02 08:54:05;;;;;;;10.03;6.03;;;;;;;;;;6208710;23;20382;-92
2023/10/02 08:56:43;;;;;;;11.37;7.57;;;;;;;;;;6208272;23;20391;-92
2023/10/02 08:59:16;;;;;;;9.80;6.30;;;;;;;;;;6212897;23;20386;-91
2023/10/02 09:01:47;;;;;;;18.30;8.43;;;;;;;;;;6230153;23;20370;-91
2023/10/02 09:04:22;;;;;;;15.03;7.53;;;;;;;;;;6205727;23;20480;-89
2023/10/02 09:06:49;;;;;;;17.87;7.43;;;;;;;;;;6205976;23;20409;-89
2023/10/02 09:09:45;;;;;;;12.87;7.80;;;;;;;;;;6230284;23;20369;-88
2023/10/02 09:12:14;;;;;;;13.53;7.30;;;;;;;;;;6234845;23;20393;-88
2023/10/02 09:14:40;;;;;;;12.80;7.37;;;;;;;;;;6201898;23;20464;-88
2023/10/02 09:17:43;;;;;;;14.23;6.93;;;;;;;;;;6232314;23;20370;-86
2023/10/02 09:20:02;;;;;;;14.70;7.50;;;;;;;;;;6237015;22;20382;-90
2023/10/02 09:22:29;;;;;;;18.40;8.80;;;;;;;;;;6206857;23;20370;-89
2023/10/02 09:25:26;;;;;;;13.87;7.50;;;;;;;;;;6205783;23;20417;-89
2023/10/02 09:27:56;;;;;;;11.80;7.33;;;;;;;;;;6232049;23;20358;-89
2023/10/02 09:30:23;;;;;;;15.47;7.53;;;;;;;;;;6208197;23;20478;-91
2023/10/02 09:32:51;;;;;;;14.70;7.77;;;;;;;;;;6211608;23;20397;-91
2023/10/02 09:35:23;;;;;;;14.63;7.40;;;;;;;;;;6206568;23;20382;-91
2023/10/02 09:37:58;;;;;;;15.20;7.60;;;;;;;;;;6230281;23;20405;-91
2023/10/02 09:40:28;;;;;;;12.03;8.37;;;;;;;;;;6204481;23;20394;-91
2023/10/02 09:43:00;;;;;;;13.70;7.40;;;;;;;;;;6208272;23;20853;-92
2023/10/02 09:45:35;;;;;;;15.60;8.43;;;;;;;;;;6205672;23;20453;-92
2023/10/02 09:51:07;;;;;;;14.50;7.23;;;;;;;;;;6207394;23;20397;-92
2023/10/02 09:53:35;;;;;;;14.30;8.43;;;;;;;;;;6146045;23;20389;-93
2023/10/02 09:56:09;;;;;;;16.53;7.30;;;;;;;;;;6147814;23;20365;-93
2023/10/02 09:58:48;;;;;;;11.80;7.50;;;;;;;;;;6121669;23;20405;-92
2023/10/02 10:03:59;;;;;;;12.73;7.07;;;;;;;;;;6170162;23;20345;-93
2023/10/02 10:06:29;;;;;;;14.50;8.53;;;;;;;;;;6117525;23;20393;-93
2023/10/02 10:14:43;;;;;;;14.07;8.17;;;;;;;;;;6163478;23;20403;-93
2023/10/02 10:17:18;;;;;;;15.10;7.67;;;;;;;;;;6117299;23;20393;-93
2023/10/02 10:22:50;;;;;;;14.77;7.57;;;;;;;;;;6164611;23;20732;-93
2023/10/02 10:25:22;;;;;;;14.60;8.20;;;;;;;;;;6115318;23;20431;-93
2023/10/02 10:27:55;;;;;;;15.70;7.80;;;;;;;;;;6142296;23;20377;-92
2023/10/02 10:30:28;;;;;;;13.63;6.60;;;;;;;;;;6163741;23;20378;-92
2023/10/02 10:35:35;;;;;;;17.10;7.40;;;;;;;;;;6256669;23;20375;-92
2023/10/02 10:38:07;;;;;;;14.50;8.03;;;;;;;;;;6213747;23;20378;-93
2023/10/02 10:40:50;;;;;;;11.70;6.00;;;;;;;;;;6206951;23;20442;-91
2023/10/02 10:43:21;;;;;;;17.47;8.40;;;;;;;;;;6230968;23;20370;-89
2023/10/02 10:45:51;;;;;;;12.20;7.00;;;;;;;;;;6205995;23;20441;-90
2023/10/02 10:48:24;;;;;;;15.10;7.90;;;;;;;;;;6205496;23;20408;-89
2023/10/02 10:50:59;;;;;;;12.07;6.93;;;;;;;;;;6205399;23;20381;-91
2023/10/02 10:53:26;;;;;;;14.77;8.10;;;;;;;;;;6208618;23;20362;-91
2023/10/02 10:55:56;;;;;;;12.80;7.50;;;;;;;;;;6209322;23;20418;-92
2023/10/02 10:58:35;;;;;;;13.80;6.80;;;;;;;;;;6203001;23;20394;-91
2023/10/02 11:01:05;;;;;;;14.60;8.90;;;;;;;;;;6210198;23;20385;-91
2023/10/02 11:03:31;;;;;;;16.20;8.23;;;;;;;;;;6206388;23;20386;-91
2023/10/02 11:06:04;;;;;;;16.10;9.50;;;;;;;;;;6206335;23;20422;-92
2023/10/02 11:08:33;;;;;;;12.30;7.87;;;;;;;;;;6199674;23;20382;-92
2023/10/02 11:11:04;;;;;;;14.20;7.67;;;;;;;;;;6210441;23;20402;-91
2023/10/02 11:13:53;;;;;;;17.93;8.47;;;;;;;;;;6202310;23;20390;-91
2023/10/02 11:16:23;;;;;;;14.47;8.97;;;;;;;;;;6208576;23;20384;-92
2023/10/02 11:19:13;;;;;;;12.77;7.63;;;;;;;;;;6203664;23;20794;-90
2023/10/02 11:21:45;;;;;;;13.67;8.57;;;;;;;;;;6230348;23;20400;-91
2023/10/02 11:24:27;;;;;;;14.30;9.43;;;;;;;;;;6204995;23;20397;-91
2023/10/02 11:26:55;;;;;;;16.43;9.40;;;;;;;;;;6207762;22;20389;-92
2023/10/02 11:29:24;;;;;;;13.90;9.23;;;;;;;;;;6202573;23;20391;-91
2023/10/02 11:34:44;;;;;;;18.13;9.87;;;;;;;;;;6233974;23;20393;-91
2023/10/02 11:37:17;;;;;;;17.83;11.07;;;;;;;;;;6208754;23;20924;-90
2023/10/02 11:39:44;;;;;;;18.20;10.43;;;;;;;;;;6199334;23;20360;-91
2023/10/02 11:42:10;;;;;;;15.10;8.07;;;;;;;;;;6205874;23;20454;-92
2023/10/02 11:44:59;;;;;;;;;;;;;;;;;;;;;
2023/10/02 11:47:28;;;;;;;14.40;9.80;;;;;;;;;;6179321;23;20720;-91
2023/10/02 11:49:57;;;;;;;19.43;9.67;;;;;;;;;;6205402;23;20369;-90
2023/10/02 11:52:25;;;;;;;12.03;9.17;;;;;;;;;;6204234;23;20401;-91
2023/10/02 11:54:51;;;;;;;14.83;10.20;;;;;;;;;;6205180;23;20382;-91
2023/10/02 11:57:20;;;;;;;16.70;9.97;;;;;;;;;;6204952;23;20761;-90
2023/10/02 11:59:51;;;;;;;15.07;11.20;;;;;;;;;;6205600;23;20505;-92
2023/10/02 12:02:17;;;;;;;17.33;10.03;;;;;;;;;;6203176;23;20409;-91
2023/10/02 12:04:52;;;;;;;18.27;11.03;;;;;;;;;;6202595;23;20441;-90
2023/10/02 12:07:18;;;;;;;20.63;11.07;;;;;;;;;;6227028;23;20401;-90
2023/10/02 12:09:55;;;;;;;16.80;10.03;;;;;;;;;;6208649;23;20369;-92
2023/10/02 12:12:30;;;;;;;18.50;10.20;;;;;;;;;;6206583;23;20382;-93
2023/10/02 12:14:58;;;;;;;16.23;9.20;;;;;;;;;;6211269;23;20369;-93
2023/10/02 12:17:26;;;;;;;18.03;11.20;;;;;;;;;;6205757;23;20390;-92
2023/10/02 12:19:55;;;;;;;17.33;10.40;;;;;;;;;;6214508;23;20378;-93
2023/10/02 12:22:27;;;;;;;14.83;10.30;;;;;;;;;;6206323;23;20374;-93
2023/10/02 12:24:57;;;;;;;19.50;10.37;;;;;;;;;;6156179;23;20524;-93
2023/10/02 12:27:32;;;;;;;16.90;9.57;;;;;;;;;;6205592;23;20428;-93
2023/10/02 12:30:05;;;;;;;19.67;10.67;;;;;;;;;;6209400;23;20437;-94
2023/10/02 12:32:34;;;;;;;18.57;10.53;;;;;;;;;;6209069;23;20465;-94
2023/10/02 12:35:05;;;;;;;20.13;10.10;;;;;;;;;;6206383;23;20386;-90
2023/10/02 12:37:39;;;;;;;21.20;11.97;;;;;;;;;;6202698;23;20462;-91
2023/10/02 12:40:31;;;;;;;16.27;9.40;;;;;;;;;;6226443;23;20379;-91
2023/10/02 12:43:23;;;;;;;;;;;;;;;;;;;;;
2023/10/02 12:45:57;;;;;;;20.40;11.83;;;;;;;;;;6232578;23;20434;-90
2023/10/02 12:48:24;;;;;;;20.53;10.97;;;;;;;;;;6203967;23;20374;-91
2023/10/02 12:50:53;;;;;;;16.93;9.50;;;;;;;;;;6135460;23;20381;-91
2023/10/02 12:53:42;;;;;;;17.57;10.30;;;;;;;;;;6117298;23;20356;-91
2023/10/02 12:56:19;;;;;;;20.03;11.27;;;;;;;;;;6163018;23;20393;-91
2023/10/02 12:59:06;;;;;;;19.50;11.03;;;;;;;;;;6142088;23;20432;-91
2023/10/02 13:01:50;;;;;;;19.90;11.60;;;;;;;;;;6138189;23;20392;-91
2023/10/02 13:04:18;;;;;;;20.27;11.70;;;;;;;;;;6122866;23;20432;-92
2023/10/02 13:06:45;;;;;;;18.80;11.23;;;;;;;;;;6114732;23;20384;-90
2023/10/02 13:09:14;;;;;;;22.37;11.97;;;;;;;;;;6115371;23;20488;-90
2023/10/02 13:11:44;;;;;;;19.80;11.20;;;;;;;;;;6114251;23;20445;-90
2023/10/02 13:14:16;;;;;;;21.10;12.23;;;;;;;;;;6113391;23;20373;-90
2023/10/02 13:16:42;;;;;;;21.87;11.20;;;;;;;;;;6115046;23;20381;-89
2023/10/02 13:19:09;;;;;;;20.43;11.40;;;;;;;;;;6117664;23;20381;-90
2023/10/02 13:21:38;;;;;;;20.30;11.60;;;;;;;;;;6152804;23;20382;-91
2023/10/02 13:24:05;;;;;;;30.93;13.47;;;;;;;;;;6211222;23;20535;-90
2023/10/02 13:26:36;;;;;;;18.50;10.40;;;;;;;;;;6205714;23;20373;-91
2023/10/02 13:29:03;;;;;;;25.43;12.60;;;;;;;;;;6254098;23;20381;-91
2023/10/02 13:31:29;;;;;;;22.97;10.73;;;;;;;;;;6227975;23;20370;-89
2023/10/02 13:33:55;;;;;;;22.70;12.03;;;;;;;;;;6201901;23;20383;-90
2023/10/02 13:36:22;;;;;;;21.33;10.80;;;;;;;;;;6203530;23;20380;-92
2023/10/02 13:39:04;;;;;;;22.60;11.33;;;;;;;;;;6204155;23;20766;-91
2023/10/02 13:41:31;;;;;;;20.90;11.90;;;;;;;;;;6203970;23;20401;-91
2023/10/02 13:43:59;;;;;;;24.63;15.27;;;;;;;;;;6202105;23;20394;-90
2023/10/02 13:46:25;;;;;;;21.77;11.67;;;;;;;;;;6229593;23;20386;-91
2023/10/02 13:48:52;;;;;;;27.80;11.23;;;;;;;;;;6204281;23;20398;-91
2023/10/02 13:51:20;;;;;;;25.17;12.53;;;;;;;;;;6230448;23;20405;-91
2023/10/02 13:53:46;;;;;;;21.60;11.17;;;;;;;;;;6230705;23;20378;-91
2023/10/02 13:56:16;;;;;;;20.23;11.67;;;;;;;;;;6228041;23;20386;-91
2023/10/02 13:58:50;;;;;;;25.40;13.00;;;;;;;;;;6210279;23;20529;-91
2023/10/02 14:01:20;;;;;;;23.40;12.50;;;;;;;;;;6228884;23;20437;-91
2023/10/02 14:03:46;;;;;;;18.70;10.83;;;;;;;;;;6228427;23;20383;-92
2023/10/02 14:06:14;;;;;;;21.27;11.27;;;;;;;;;;6230371;23;20430;-91
2023/10/02 14:08:40;;;;;;;22.67;11.10;;;;;;;;;;6235585;23;20398;-93
2023/10/02 14:11:08;;;;;;;21.20;10.97;;;;;;;;;;6235421;23;20374;-94
2023/10/02 14:13:35;;;;;;;23.40;12.60;;;;;;;;;;6235436;23;20370;-94
2023/10/02 14:16:07;;;;;;;19.90;11.27;;;;;;;;;;6201338;23;20756;-95
2023/10/02 14:18:37;;;;;;;29.40;12.20;;;;;;;;;;6181321;23;20526;-96
2023/10/02 14:21:10;;;;;;;22.00;12.67;;;;;;;;;;6180019;23;20828;-96
2023/10/02 14:23:37;;;;;;;23.87;12.07;;;;;;;;;;6182561;23;20401;-94
2023/10/02 14:26:03;;;;;;;22.00;10.90;;;;;;;;;;6175672;23;20441;-93
2023/10/02 14:28:31;;;;;;;23.27;11.73;;;;;;;;;;6180474;23;20391;-92
2023/10/02 14:30:57;;;;;;;26.47;11.87;;;;;;;;;;6163503;23;20380;-92
2023/10/02 14:33:26;;;;;;;22.60;11.23;;;;;;;;;;6170723;23;20397;-93
2023/10/02 14:35:53;;;;;;;25.77;11.73;;;;;;;;;;6170425;23;20388;-92
2023/10/02 14:38:25;;;;;;;21.30;11.43;;;;;;;;;;6175131;23;20387;-92
2023/10/02 14:40:51;;;;;;;25.33;12.90;;;;;;;;;;6194457;23;20380;-92
2023/10/02 14:43:18;;;;;;;20.37;11.30;;;;;;;;;;6168694;23;20388;-91
2023/10/02 14:45:44;;;;;;;26.67;13.00;;;;;;;;;;6168950;23;20416;-92
2023/10/02 14:48:16;;;;;;;29.33;13.37;;;;;;;;;;6205488;23;20398;-92
2023/10/02 14:50:44;;;;;;;25.10;11.70;;;;;;;;;;6141044;23;20431;-92
2023/10/02 14:53:14;;;;;;;37.90;18.97;;;;;;;;;;6144924;23;20377;-93
2023/10/02 14:55:44;;;;;;;29.87;13.20;;;;;;;;;;6116621;23;20357;-91
2023/10/02 14:58:13;;;;;;;29.03;14.50;;;;;;;;;;6124192;23;20353;-91
2023/10/02 15:00:41;;;;;;;25.50;12.90;;;;;;;;;;6095048;23;20448;-92
2023/10/02 15:03:08;;;;;;;22.77;12.73;;;;;;;;;;6117608;23;20400;-92
2023/10/02 15:05:37;;;;;;;29.07;13.20;;;;;;;;;;6116822;23;20422;-92
2023/10/02 15:08:19;;;;;;;28.60;13.80;;;;;;;;;;6118273;23;20452;-91
2023/10/02 15:11:06;;;;;;;25.83;14.13;;;;;;;;;;6144013;23;20447;-91
2023/10/02 15:13:38;;;;;;;21.17;11.90;;;;;;;;;;6114178;23;20389;-92
2023/10/02 15:16:15;;;;;;;28.57;12.87;;;;;;;;;;6107732;23;20875;-93
2023/10/02 15:18:49;;;;;;;23.83;12.00;;;;;;;;;;6084195;23;20383;-92
2023/10/02 15:21:34;;;;;;;26.43;12.00;;;;;;;;;;6049529;23;20738;-92
2023/10/02 15:24:10;;;;;;;23.77;13.80;;;;;;;;;;6005675;23;20381;-92
2023/10/02 15:26:39;;;;;;;24.87;13.10;;;;;;;;;;6005466;23;20400;-92
2023/10/02 15:29:09;;;;;;;22.53;11.10;;;;;;;;;;6055349;23;20397;-92
2023/10/02 15:31:38;;;;;;;27.23;12.57;;;;;;;;;;5994375;23;20433;-91
2023/10/02 15:34:07;;;;;;;18.90;12.20;;;;;;;;;;5974815;24;20450;-92
2023/10/02 15:36:39;;;;;;;26.27;13.27;;;;;;;;;;5970793;24;20910;-92
2023/10/02 15:39:13;;;;;;;22.10;11.20;;;;;;;;;;5998992;23;20393;-91
2023/10/02 15:41:44;;;;;;;29.93;12.60;;;;;;;;;;6000973;23;20386;-92
2023/10/02 15:44:24;;;;;;;24.17;11.37;;;;;;;;;;6041477;23;20391;-93
2023/10/02 15:46:54;;;;;;;25.33;10.77;;;;;;;;;;6093794;23;20387;-92
2023/10/02 15:49:38;;;;;;;27.57;11.57;;;;;;;;;;6078306;23;20399;-93
2023/10/02 15:52:04;;;;;;;24.50;12.17;;;;;;;;;;6039176;23;20789;-92
2023/10/02 15:54:32;;;;;;;22.07;11.03;;;;;;;;;;6052949;23;20392;-93
2023/10/02 15:57:07;;;;;;;21.37;12.60;;;;;;;;;;6074981;23;20390;-92
2023/10/02 15:59:37;;;;;;;25.33;12.50;;;;;;;;;;6081956;23;20393;-93
2023/10/02 16:02:11;;;;;;;25.60;11.37;;;;;;;;;;6114573;23;20452;-90
2023/10/02 16:04:46;;;;;;;27.10;11.97;;;;;;;;;;6074713;23;20423;-90
2023/10/02 16:07:36;;;;;;;23.23;11.90;;;;;;;;;;6105735;23;20460;-91
2023/10/02 16:10:06;;;;;;;19.70;11.13;;;;;;;;;;6064813;23;20382;-92
2023/10/02 16:12:33;;;;;;;24.10;12.67;;;;;;;;;;6126944;23;20379;-92
2023/10/02 16:14:59;;;;;;;19.97;12.67;;;;;;;;;;6129076;23;20738;-91
2023/10/02 16:17:25;;;;;;;25.93;13.60;;;;;;;;;;6058461;23;20494;-92
2023/10/02 16:19:51;;;;;;;22.77;11.63;;;;;;;;;;6106205;23;20860;-91
2023/10/02 16:22:18;;;;;;;23.83;11.13;;;;;;;;;;6107473;23;20718;-90
2023/10/02 16:24:44;;;;;;;26.30;13.00;;;;;;;;;;6099782;23;20729;-92
2023/10/02 16:27:10;;;;;;;26.80;11.80;;;;;;;;;;6099731;23;20860;-91
2023/10/02 16:29:36;;;;;;;22.30;12.20;;;;;;;;;;6103560;23;20462;-91
2023/10/02 16:32:04;;;;;;;21.07;13.17;;;;;;;;;;6103880;23;20486;-91
2023/10/02 16:34:30;;;;;;;21.97;12.50;;;;;;;;;;6104726;23;20390;-91